Time;durP1;ratioP1;P1;durP2;ratioP2;P2;SDS_P1;SDS_P2;PMS_P1;PMS_P2;Temp;Humidity;BMP_temperature;BMP_pressure;BME280_temperature;BME280_humidity;BME280_pressure;Samples;Min_cycle;Max_cycle;Signal;HPM_P1;HPM_P2
2022/09/13 00:00:42;;;;;;;8.00;7.40;;;14.00;99.90;;;;;;5063094;28;20187;-78
2022/09/13 00:03:10;;;;;;;7.83;7.23;;;13.90;99.90;;;;;;5069114;28;20217;-77
2022/09/13 00:05:38;;;;;;;8.20;7.60;;;13.80;99.90;;;;;;5062763;28;20195;-78
2022/09/13 00:08:07;;;;;;;8.20;7.70;;;13.80;99.90;;;;;;5069895;28;20614;-77
2022/09/13 00:10:37;;;;;;;8.10;7.50;;;13.80;99.90;;;;;;5061468;28;20226;-77
2022/09/13 00:13:05;;;;;;;8.20;7.60;;;13.80;99.90;;;;;;5064991;28;20603;-78
2022/09/13 00:15:32;;;;;;;8.33;7.73;;;13.80;99.90;;;;;;5060938;28;20256;-78
2022/09/13 00:17:59;;;;;;;8.23;7.53;;;13.80;99.90;;;;;;5057976;28;20249;-78
2022/09/13 00:20:26;;;;;;;8.03;7.53;;;13.80;99.90;;;;;;5066132;28;20209;-76
2022/09/13 00:22:53;;;;;;;7.67;7.17;;;13.80;99.90;;;;;;5057867;28;20848;-77
2022/09/13 00:25:21;;;;;;;7.40;6.90;;;13.80;99.90;;;;;;5063948;28;20236;-77
2022/09/13 00:27:48;;;;;;;8.10;7.60;;;13.80;99.90;;;;;;5063036;28;20615;-78
2022/09/13 00:30:14;;;;;;;8.07;7.47;;;13.80;99.90;;;;;;5062296;28;20648;-78
2022/09/13 00:32:41;;;;;;;8.13;7.63;;;13.80;99.90;;;;;;5062751;28;20219;-77
2022/09/13 00:35:09;;;;;;;8.60;8.00;;;13.80;99.90;;;;;;5056401;28;20207;-76
2022/09/13 00:37:36;;;;;;;8.90;8.30;;;13.90;99.90;;;;;;5061782;28;20674;-77
2022/09/13 00:40:03;;;;;;;8.50;7.90;;;13.90;99.90;;;;;;5058859;28;20199;-77
2022/09/13 00:42:33;;;;;;;8.50;7.80;;;13.90;99.90;;;;;;5060563;28;20710;-77
2022/09/13 00:45:01;;;;;;;8.40;7.80;;;13.90;99.90;;;;;;5063119;28;20668;-77
2022/09/13 00:47:35;;;;;;;8.53;7.93;;;13.80;99.90;;;;;;5060786;28;20237;-77
2022/09/13 00:50:09;;;;;;;8.13;7.53;;;13.80;99.90;;;;;;5060903;28;20226;-77
2022/09/13 00:52:38;;;;;;;8.67;7.90;;;13.70;99.90;;;;;;5060820;28;20703;-77
2022/09/13 00:55:11;;;;;;;8.80;8.20;;;13.70;99.90;;;;;;5065284;28;20239;-77
2022/09/13 00:57:43;;;;;;;8.70;8.10;;;13.70;99.90;;;;;;5062059;28;20210;-77
2022/09/13 01:00:13;;;;;;;8.53;7.97;;;13.70;99.90;;;;;;5048344;28;20240;-77
2022/09/13 01:02:43;;;;;;;8.50;7.90;;;13.70;99.90;;;;;;5049115;28;20273;-77
2022/09/13 01:05:11;;;;;;;8.47;7.87;;;13.70;99.90;;;;;;5052132;28;20713;-78
2022/09/13 01:07:39;;;;;;;8.20;7.60;;;13.70;99.90;;;;;;5060241;28;20248;-77
2022/09/13 01:10:07;;;;;;;7.83;7.30;;;13.70;99.90;;;;;;5063145;28;20297;-78
2022/09/13 01:12:42;;;;;;;8.17;7.57;;;13.60;99.90;;;;;;5065265;28;20198;-77
2022/09/13 01:15:11;;;;;;;8.20;7.70;;;13.60;99.90;;;;;;5060324;28;20211;-77
2022/09/13 01:17:39;;;;;;;8.13;7.63;;;13.60;99.90;;;;;;5061722;28;20547;-77
2022/09/13 01:20:07;;;;;;;8.40;7.77;;;;;;;;;;5063462;28;20609;-77
2022/09/13 01:22:48;;;;;;;8.87;8.17;;;;;;;;;;5055943;28;20277;-77
2022/09/13 01:25:36;;;;;;;8.23;7.67;;;;;;;;;;5067107;28;20705;-78
2022/09/13 01:28:28;;;;;;;8.13;7.53;;;13.50;99.90;;;;;;5057238;28;20196;-77
2022/09/13 01:31:02;;;;;;;8.40;7.80;;;13.40;99.90;;;;;;5063019;28;20218;-78
2022/09/13 01:33:45;;;;;;;7.97;7.47;;;13.40;99.90;;;;;;5061287;28;20593;-77
2022/09/13 01:36:38;;;;;;;7.83;7.33;;;13.30;99.90;;;;;;5067035;28;20207;-77
2022/09/13 01:39:09;;;;;;;8.43;7.73;;;13.30;99.90;;;;;;5057127;28;20627;-78
2022/09/13 01:41:57;;;;;;;9.70;7.90;;;13.30;99.90;;;;;;5055390;28;20639;-78
2022/09/13 01:44:39;;;;;;;9.27;8.47;;;13.20;99.90;;;;;;5062433;28;20226;-78
2022/09/13 01:47:16;;;;;;;8.90;8.23;;;13.20;99.90;;;;;;5059581;28;20186;-79
2022/09/13 01:49:47;;;;;;;8.67;8.00;;;13.20;99.90;;;;;;5058443;28;20272;-78
2022/09/13 01:52:21;;;;;;;8.73;8.03;;;13.20;99.90;;;;;;5069192;28;20207;-78
2022/09/13 01:54:53;;;;;;;8.50;7.90;;;13.20;99.90;;;;;;5060745;28;20190;-77
2022/09/13 01:57:27;;;;;;;8.50;8.00;;;13.10;99.90;;;;;;5059397;28;20738;-77
2022/09/13 01:59:59;;;;;;;8.83;8.13;;;13.10;99.90;;;;;;5062231;28;20620;-77
2022/09/13 02:02:31;;;;;;;8.83;8.23;;;13.10;99.90;;;;;;5061620;28;20203;-77
2022/09/13 02:05:04;;;;;;;8.30;7.70;;;13.10;99.90;;;;;;5061496;28;20213;-77
2022/09/13 02:07:36;;;;;;;7.80;7.30;;;13.00;99.90;;;;;;5059363;28;20197;-77
2022/09/13 02:10:08;;;;;;;7.80;7.30;;;13.00;99.90;;;;;;5056859;28;20654;-77
2022/09/13 02:12:37;;;;;;;7.97;7.47;;;12.90;99.90;;;;;;5056356;28;20187;-78
2022/09/13 02:15:09;;;;;;;8.60;7.97;;;12.90;99.90;;;;;;5097005;22;20349;-77
2022/09/13 02:17:38;;;;;;;8.43;7.73;;;12.90;99.90;;;;;;5072433;28;20187;-77
2022/09/13 02:20:12;;;;;;;8.50;7.90;;;12.90;99.90;;;;;;5067973;28;20190;-77
2022/09/13 02:22:45;;;;;;;8.27;7.77;;;12.80;99.90;;;;;;5067821;28;20437;-77
2022/09/13 02:25:16;;;;;;;8.37;7.77;;;12.80;99.90;;;;;;5047144;28;20227;-77
2022/09/13 02:27:48;;;;;;;8.47;7.87;;;12.80;99.90;;;;;;5047593;28;20711;-77
2022/09/13 02:30:15;;;;;;;8.60;8.00;;;12.80;99.90;;;;;;5053460;28;20222;-77
2022/09/13 02:32:49;;;;;;;8.80;8.10;;;12.70;99.90;;;;;;5056277;28;20253;-77
2022/09/13 02:35:20;;;;;;;8.50;7.90;;;12.70;99.90;;;;;;5048535;28;20597;-77
2022/09/13 02:37:55;;;;;;;8.73;8.07;;;12.70;99.90;;;;;;5056658;28;20195;-77
2022/09/13 02:40:28;;;;;;;8.67;7.97;;;12.70;99.90;;;;;;5055366;28;20189;-77
2022/09/13 02:43:01;;;;;;;8.30;7.70;;;12.70;99.90;;;;;;5054468;28;20199;-80
2022/09/13 02:45:33;;;;;;;8.30;7.60;;;12.70;99.90;;;;;;5055461;28;20229;-77
2022/09/13 02:48:09;;;;;;;8.97;8.33;;;12.70;99.90;;;;;;5054230;28;20264;-78
2022/09/13 02:50:47;;;;;;;9.20;8.60;;;12.70;99.90;;;;;;5049611;28;20210;-77
2022/09/13 02:53:25;;;;;;;8.30;7.80;;;12.70;99.90;;;;;;5046411;28;20726;-78
2022/09/13 02:56:00;;;;;;;8.03;7.53;;;12.50;99.90;;;;;;5053563;28;20252;-78
2022/09/13 02:58:34;;;;;;;8.33;7.83;;;12.50;99.90;;;;;;5050951;28;20210;-76
2022/09/13 03:01:01;;;;;;;8.00;7.50;;;12.40;99.90;;;;;;5045195;28;20572;-76
2022/09/13 03:03:29;;;;;;;7.80;7.30;;;12.40;99.90;;;;;;5047852;28;20703;-77
2022/09/13 03:05:56;;;;;;;8.17;7.57;;;12.40;99.90;;;;;;5061161;28;20269;-77
2022/09/13 03:08:24;;;;;;;8.67;8.17;;;12.40;99.90;;;;;;5040939;28;20271;-76
2022/09/13 03:11:01;;;;;;;8.57;8.07;;;12.40;99.90;;;;;;5062644;28;20283;-75
2022/09/13 03:13:40;;;;;;;8.37;7.80;;;12.40;99.90;;;;;;5051164;28;20225;-76
2022/09/13 03:16:19;;;;;;;8.93;8.37;;;12.30;99.90;;;;;;5053641;28;20205;-75
2022/09/13 03:18:55;;;;;;;8.80;8.30;;;12.30;99.90;;;;;;5053917;28;20393;-76
2022/09/13 03:21:45;;;;;;;8.80;8.30;;;12.30;99.90;;;;;;5049011;28;20592;-76
2022/09/13 03:24:18;;;;;;;8.80;8.10;;;12.30;99.90;;;;;;5047633;28;20623;-76
2022/09/13 03:26:58;;;;;;;8.40;7.80;;;12.30;99.90;;;;;;5056014;28;20191;-77
2022/09/13 03:29:30;;;;;;;8.90;8.30;;;12.40;99.90;;;;;;5055807;28;20557;-76
2022/09/13 03:32:06;;;;;;;8.50;8.00;;;12.40;99.90;;;;;;5055187;28;20587;-76
2022/09/13 03:34:43;;;;;;;9.60;8.23;;;12.50;99.90;;;;;;5054686;28;20215;-76
2022/09/13 03:37:17;;;;;;;9.13;8.50;;;12.50;99.90;;;;;;5045343;28;20439;-76
2022/09/13 03:39:48;;;;;;;8.45;7.93;;;12.60;99.90;;;;;;5053890;28;20443;-76
2022/09/13 03:42:22;;;;;;;8.90;8.30;;;12.60;99.90;;;;;;5054735;28;20207;-76
2022/09/13 03:44:51;;;;;;;9.07;8.47;;;12.60;99.90;;;;;;5054017;28;20646;-76
2022/09/13 03:47:19;;;;;;;8.30;7.80;;;12.50;99.90;;;;;;5054588;28;20206;-76
2022/09/13 03:49:50;;;;;;;8.80;8.20;;;12.50;99.90;;;;;;5056182;28;20213;-75
2022/09/13 03:52:16;;;;;;;8.53;8.00;;;12.50;99.90;;;;;;5056688;28;20195;-76
2022/09/13 03:54:43;;;;;;;9.07;8.47;;;12.50;99.90;;;;;;5048429;28;20473;-76
2022/09/13 03:57:12;;;;;;;9.50;8.90;;;12.40;99.90;;;;;;5051855;28;20223;-75
2022/09/13 03:59:44;;;;;;;9.60;9.00;;;12.40;99.90;;;;;;5053228;28;20744;-76
2022/09/13 04:02:11;;;;;;;9.20;8.60;;;12.30;99.90;;;;;;5053172;28;20202;-76
2022/09/13 04:04:39;;;;;;;9.50;8.90;;;12.30;99.90;;;;;;5055755;28;20217;-76
2022/09/13 04:07:07;;;;;;;9.60;8.90;;;12.30;99.90;;;;;;5056737;28;20193;-77
2022/09/13 04:09:34;;;;;;;8.93;8.43;;;12.30;99.90;;;;;;5056261;28;20203;-75
2022/09/13 04:12:01;;;;;;;9.10;8.50;;;12.30;99.90;;;;;;5056813;28;20242;-76
2022/09/13 04:14:28;;;;;;;9.17;8.57;;;12.20;99.90;;;;;;5054923;28;20229;-76
2022/09/13 04:16:56;;;;;;;9.60;8.90;;;12.30;99.90;;;;;;5055976;28;20329;-75
2022/09/13 04:19:24;;;;;;;10.23;9.43;;;12.20;99.90;;;;;;5055070;28;20206;-76
2022/09/13 04:21:52;;;;;;;9.60;8.90;;;12.20;99.90;;;;;;5053950;28;20193;-77
2022/09/13 04:24:20;;;;;;;9.43;8.83;;;12.20;99.90;;;;;;5054580;28;20219;-76
2022/09/13 04:26:50;;;;;;;10.00;9.30;;;12.10;99.90;;;;;;5054281;28;20914;-76
2022/09/13 04:29:17;;;;;;;10.07;9.37;;;12.10;99.90;;;;;;5048885;28;20197;-76
2022/09/13 04:31:44;;;;;;;12.97;10.33;;;12.10;99.90;;;;;;5055508;28;20221;-76
2022/09/13 04:34:11;;;;;;;10.47;9.67;;;12.10;99.90;;;;;;5055110;28;20215;-76
2022/09/13 04:36:38;;;;;;;11.10;10.23;;;12.00;99.90;;;;;;5055952;28;20195;-76
2022/09/13 04:39:05;;;;;;;10.53;9.63;;;12.00;99.90;;;;;;5054501;28;20207;-75
2022/09/13 04:41:33;;;;;;;10.67;9.97;;;12.00;99.90;;;;;;5056205;28;20195;-77
2022/09/13 04:44:00;;;;;;;11.23;10.40;;;12.00;99.90;;;;;;5055204;28;20254;-77
2022/09/13 04:46:27;;;;;;;10.93;10.03;;;12.00;99.90;;;;;;5056041;28;20205;-76
2022/09/13 04:48:54;;;;;;;10.30;9.60;;;12.00;99.90;;;;;;5054418;28;20216;-76
2022/09/13 04:51:21;;;;;;;11.20;10.30;;;12.00;99.90;;;;;;5049886;28;20256;-76
2022/09/13 04:53:52;;;;;;;10.37;9.67;;;12.10;99.90;;;;;;5054472;28;20625;-75
2022/09/13 04:56:19;;;;;;;10.53;9.83;;;12.20;99.90;;;;;;5055395;28;20198;-76
2022/09/13 04:58:48;;;;;;;10.40;9.60;;;12.30;99.90;;;;;;5055626;28;20201;-77
2022/09/13 05:01:14;;;;;;;11.17;10.17;;;12.30;99.90;;;;;;5054028;28;20192;-75
2022/09/13 05:03:41;;;;;;;10.17;9.57;;;12.40;99.90;;;;;;5053676;28;20274;-76
2022/09/13 05:06:10;;;;;;;10.20;9.33;;;12.40;99.90;;;;;;5055828;28;20232;-76
2022/09/13 05:08:37;;;;;;;10.17;9.53;;;12.50;99.90;;;;;;5054390;28;20296;-76
2022/09/13 05:11:05;;;;;;;10.40;9.70;;;12.50;99.90;;;;;;5054016;28;20704;-77
2022/09/13 05:13:32;;;;;;;9.90;9.20;;;12.50;99.90;;;;;;5054620;28;20238;-75
2022/09/13 05:16:02;;;;;;;10.87;9.87;;;12.60;99.90;;;;;;5053884;28;20393;-76
2022/09/13 05:18:31;;;;;;;10.50;9.70;;;12.70;99.90;;;;;;5054320;28;20252;-76
2022/09/13 05:20:59;;;;;;;10.50;9.70;;;12.80;99.90;;;;;;5055392;28;20195;-77
2022/09/13 05:23:26;;;;;;;10.73;9.93;;;12.80;99.90;;;;;;5054738;28;20282;-76
2022/09/13 05:25:54;;;;;;;10.50;9.80;;;12.80;99.90;;;;;;5053430;28;20731;-76
2022/09/13 05:28:20;;;;;;;10.50;9.80;;;12.80;99.90;;;;;;5053686;28;20202;-77
2022/09/13 05:30:55;;;;;;;10.70;9.90;;;12.90;99.90;;;;;;5053855;28;20301;-76
2022/09/13 05:33:24;;;;;;;10.40;9.70;;;12.90;99.90;;;;;;5053639;28;20759;-77
2022/09/13 05:35:51;;;;;;;10.60;9.80;;;12.90;99.90;;;;;;5053587;28;20207;-77
2022/09/13 05:38:18;;;;;;;10.30;9.60;;;12.90;99.90;;;;;;5054835;28;20203;-77
2022/09/13 05:40:45;;;;;;;9.85;9.25;;;13.00;99.90;;;;;;5044265;28;20442;-76
2022/09/13 05:43:12;;;;;;;10.20;9.30;;;13.10;99.90;;;;;;5048873;28;20609;-77
2022/09/13 05:45:38;;;;;;;9.83;9.17;;;13.20;99.90;;;;;;5053743;28;20198;-76
2022/09/13 05:48:05;;;;;;;5.27;4.70;;;13.30;99.90;;;;;;5055244;28;20253;-77
2022/09/13 05:50:37;;;;;;;5.13;4.73;;;13.40;99.90;;;;;;5053263;28;20230;-77
2022/09/13 05:53:04;;;;;;;4.70;4.30;;;13.50;99.90;;;;;;5054465;28;20265;-76
2022/09/13 05:55:31;;;;;;;5.30;4.80;;;13.50;99.90;;;;;;5048198;28;20626;-76
2022/09/13 05:57:58;;;;;;;10.80;10.00;;;13.60;99.90;;;;;;5054459;28;20203;-76
2022/09/13 06:00:24;;;;;;;11.40;10.60;;;13.60;99.90;;;;;;5053740;28;20226;-78
2022/09/13 06:02:51;;;;;;;10.10;9.50;;;13.70;99.90;;;;;;5054159;28;20199;-76
2022/09/13 06:05:18;;;;;;;10.30;9.50;;;13.90;99.90;;;;;;5054566;28;20639;-78
2022/09/13 06:07:46;;;;;;;9.40;8.80;;;14.10;99.90;;;;;;5055529;28;20206;-77
2022/09/13 06:10:13;;;;;;;9.83;9.10;;;14.20;99.90;;;;;;5054399;28;20187;-76
2022/09/13 06:12:40;;;;;;;9.60;9.00;;;14.30;99.90;;;;;;5053189;28;20276;-76
2022/09/13 06:15:10;;;;;;;9.17;8.47;;;14.50;99.90;;;;;;5054311;28;20288;-77
2022/09/13 06:17:37;;;;;;;9.10;8.50;;;14.70;99.90;;;;;;5053839;28;20203;-76
2022/09/13 06:20:04;;;;;;;9.33;8.73;;;14.80;99.90;;;;;;5051931;28;20208;-77
2022/09/13 06:22:34;;;;;;;9.10;8.50;;;15.00;99.90;;;;;;5053703;28;20187;-77
2022/09/13 06:25:02;;;;;;;9.00;8.40;;;15.10;99.90;;;;;;5051351;28;20230;-77
2022/09/13 06:27:30;;;;;;;8.70;8.20;;;15.30;99.90;;;;;;5052219;28;20195;-77
2022/09/13 06:29:56;;;;;;;9.40;8.70;;;15.50;99.90;;;;;;5053437;28;20282;-77
2022/09/13 06:32:23;;;;;;;9.10;8.50;;;15.60;99.90;;;;;;5052242;28;20252;-77
2022/09/13 06:34:50;;;;;;;8.77;8.17;;;15.70;99.90;;;;;;5051794;28;20228;-77
2022/09/13 06:37:17;;;;;;;8.97;8.27;;;15.80;99.90;;;;;;5053605;28;20205;-77
2022/09/13 06:39:43;;;;;;;8.87;8.27;;;15.80;99.90;;;;;;5053233;28;20730;-77
2022/09/13 06:42:11;;;;;;;8.70;8.10;;;15.70;99.90;;;;;;5052291;28;20727;-77
2022/09/13 06:44:42;;;;;;;8.40;7.90;;;15.80;99.90;;;;;;5051910;28;20264;-77
2022/09/13 06:47:09;;;;;;;8.67;8.07;;;15.80;99.90;;;;;;5053289;28;20229;-77
2022/09/13 06:49:36;;;;;;;8.90;8.30;;;15.80;99.90;;;;;;5052230;28;20298;-77
2022/09/13 06:52:03;;;;;;;8.50;8.00;;;15.80;99.90;;;;;;5052967;28;20769;-77
2022/09/13 06:54:30;;;;;;;8.13;7.63;;;15.90;99.90;;;;;;5051466;28;20276;-77
2022/09/13 06:56:56;;;;;;;8.57;7.93;;;16.00;99.90;;;;;;5052152;28;20197;-77
2022/09/13 06:59:24;;;;;;;8.33;7.83;;;16.10;99.90;;;;;;5048391;28;20270;-77
2022/09/13 07:01:51;;;;;;;7.80;7.30;;;16.20;99.90;;;;;;5047108;28;20238;-77
2022/09/13 07:04:18;;;;;;;8.83;8.10;;;16.30;99.90;;;;;;5048590;28;20276;-77
2022/09/13 07:06:47;;;;;;;7.90;7.40;;;16.40;99.90;;;;;;5052539;28;20209;-76
2022/09/13 07:09:16;;;;;;;7.80;7.30;;;16.60;99.90;;;;;;5053639;28;20202;-77
2022/09/13 07:11:45;;;;;;;8.10;7.60;;;16.90;99.90;;;;;;5051241;28;20223;-77
2022/09/13 07:14:14;;;;;;;8.40;7.77;;;17.20;99.90;;;;;;5052658;28;20226;-77
2022/09/13 07:16:44;;;;;;;8.70;8.10;;;17.60;99.90;;;;;;5052494;28;20665;-77
2022/09/13 07:19:14;;;;;;;8.70;8.10;;;18.00;99.90;;;;;;5048032;28;20256;-77
2022/09/13 07:21:41;;;;;;;8.33;7.63;;;18.50;99.90;;;;;;5055832;28;20199;-77
2022/09/13 07:24:09;;;;;;;9.10;8.30;;;19.20;99.90;;;;;;5042353;28;20761;-78
2022/09/13 07:26:36;;;;;;;7.90;7.40;;;19.70;99.90;;;;;;5052383;28;20470;-78
2022/09/13 07:29:05;;;;;;;8.13;7.53;;;20.30;99.90;;;;;;5045890;28;20248;-78
2022/09/13 07:31:35;;;;;;;7.40;6.90;;;20.50;99.90;;;;;;5051127;28;20211;-78
2022/09/13 07:34:05;;;;;;;8.10;7.60;;;20.70;99.90;;;;;;5053349;28;20219;-78
2022/09/13 07:36:33;;;;;;;8.03;7.43;;;21.10;99.90;;;;;;5050246;28;20199;-76
2022/09/13 07:39:01;;;;;;;7.60;7.10;;;21.50;99.90;;;;;;5050999;28;20247;-76
2022/09/13 07:41:29;;;;;;;8.37;7.63;;;21.80;99.90;;;;;;5050949;28;20205;-76
2022/09/13 07:43:57;;;;;;;9.80;9.07;;;22.30;99.90;;;;;;5050433;28;20223;-76
2022/09/13 07:46:26;;;;;;;9.10;8.53;;;22.60;99.90;;;;;;5051076;28;20241;-76
2022/09/13 07:48:54;;;;;;;7.43;6.93;;;23.00;99.90;;;;;;5050818;28;20196;-76
2022/09/13 07:51:23;;;;;;;6.90;5.10;;;23.10;99.90;;;;;;5044559;28;20211;-76
2022/09/13 07:53:52;;;;;;;6.90;6.40;;;22.70;99.90;;;;;;5062401;28;20256;-76
2022/09/13 07:56:20;;;;;;;4.03;2.70;;;22.80;99.90;;;;;;5044912;28;20199;-76
2022/09/13 07:58:48;;;;;;;8.10;7.60;;;23.10;99.90;;;;;;5054736;28;20187;-76
2022/09/13 08:01:18;;;;;;;9.40;8.60;;;23.70;99.90;;;;;;5061301;28;20207;-78
2022/09/13 08:03:50;;;;;;;3.63;2.80;;;23.40;99.90;;;;;;5057292;28;20219;-78
2022/09/13 08:06:16;;;;;;;3.37;2.67;;;23.40;99.90;;;;;;5056379;28;20253;-77
2022/09/13 08:08:44;;;;;;;4.07;3.70;;;23.20;99.90;;;;;;5050440;28;20662;-77
2022/09/13 08:11:17;;;;;;;4.80;4.40;;;23.50;99.90;;;;;;5048743;28;20272;-78
2022/09/13 08:13:44;;;;;;;3.20;2.70;;;23.90;99.90;;;;;;5082283;22;20250;-82
2022/09/13 08:16:10;;;;;;;3.60;3.00;;;24.10;99.90;;;;;;5068783;28;20195;-82
2022/09/13 08:18:37;;;;;;;7.77;7.20;;;24.30;99.90;;;;;;5063228;28;20199;-79
2022/09/13 08:21:04;;;;;;;8.90;8.30;;;24.70;99.90;;;;;;5066931;28;20203;-80
2022/09/13 08:23:32;;;;;;;7.37;6.80;;;25.10;99.90;;;;;;5060458;28;20207;-79
2022/09/13 08:26:05;;;;;;;8.17;7.57;;;25.10;99.90;;;;;;5071049;28;20248;-80
2022/09/13 08:28:32;;;;;;;8.70;8.00;;;25.00;99.90;;;;;;5059169;28;20203;-79
2022/09/13 08:31:04;;;;;;;9.30;8.40;;;25.40;99.90;;;;;;5068826;28;20270;-78
2022/09/13 08:33:31;;;;;;;8.97;8.37;;;25.80;99.90;;;;;;5069630;28;20226;-79
2022/09/13 08:35:59;;;;;;;8.13;7.43;;;25.90;99.90;;;;;;5067591;28;20205;-78
2022/09/13 08:38:25;;;;;;;5.70;5.30;;;26.20;99.90;;;;;;5073161;28;20237;-80
2022/09/13 08:40:56;;;;;;;6.40;5.90;;;25.90;99.90;;;;;;5065513;28;20227;-80
2022/09/13 08:43:39;;;;;;;8.90;8.30;;;26.30;99.90;;;;;;5071636;28;20206;-80
2022/09/13 08:46:13;;;;;;;4.40;3.73;;;26.60;99.90;;;;;;5066063;28;20881;-78
2022/09/13 08:48:44;;;;;;;8.10;7.60;;;26.80;99.90;;;;;;5068779;28;20213;-79
2022/09/13 08:51:31;;;;;;;8.20;7.50;;;27.20;99.90;;;;;;5059917;28;20195;-79
2022/09/13 08:53:59;;;;;;;8.60;8.00;;;27.40;99.90;;;;;;5070581;28;20295;-80
2022/09/13 08:56:36;;;;;;;8.60;8.00;;;27.30;99.90;;;;;;5069340;28;20206;-79
2022/09/13 08:59:32;;;;;;;8.70;8.10;;;26.90;99.90;;;;;;5062599;28;20260;-80
2022/09/13 09:02:12;;;;;;;8.57;7.77;;;26.60;99.90;;;;;;5072027;28;20260;-80
2022/09/13 09:04:55;;;;;;;8.20;7.60;;;26.70;99.90;;;;;;5067088;28;20656;-79
2022/09/13 09:07:26;;;;;;;7.30;6.80;;;26.90;99.90;;;;;;5067611;28;20192;-80
2022/09/13 09:09:57;;;;;;;7.63;7.13;;;26.90;99.90;;;;;;5070765;28;20203;-80
2022/09/13 09:12:31;;;;;;;5.67;5.27;;;27.10;99.90;;;;;;5068291;28;20223;-79
2022/09/13 09:15:05;;;;;;;4.83;2.87;;;27.50;99.90;;;;;;5067203;28;20648;-79
2022/09/13 09:17:43;;;;;;;6.33;5.83;;;27.90;99.90;;;;;;5065010;28;20623;-80
2022/09/13 09:20:26;;;;;;;3.77;2.70;;;28.10;99.90;;;;;;5060611;28;20255;-80
2022/09/13 09:22:55;;;;;;;2.70;2.50;;;27.50;99.90;;;;;;5065608;28;20202;-80
2022/09/13 09:25:25;;;;;;;4.17;2.87;;;27.40;99.90;;;;;;5070080;28;20272;-80
2022/09/13 09:27:52;;;;;;;6.30;5.90;;;27.40;99.90;;;;;;5066110;28;20203;-80
2022/09/13 09:30:21;;;;;;;8.20;7.60;;;27.10;99.90;;;;;;5064695;28;20198;-80
2022/09/13 09:33:01;;;;;;;8.13;7.50;;;27.30;99.90;;;;;;5068608;28;20251;-81
2022/09/13 09:35:41;;;;;;;7.70;7.30;;;27.70;99.90;;;;;;5068010;28;20637;-80
2022/09/13 09:38:24;;;;;;;7.47;6.87;;;28.10;99.90;;;;;;5071524;28;20260;-80
2022/09/13 09:40:51;;;;;;;7.60;7.00;;;28.40;99.90;;;;;;5063810;28;20194;-78
2022/09/13 09:43:32;;;;;;;8.10;6.73;;;28.50;99.90;;;;;;5072187;28;20190;-78
2022/09/13 09:46:03;;;;;;;8.17;7.67;;;28.30;99.90;;;;;;5071779;28;20229;-78
2022/09/13 09:48:37;;;;;;;7.83;7.13;;;28.60;99.90;;;;;;5072692;28;20255;-78
2022/09/13 09:51:08;;;;;;;7.20;6.77;;;29.00;99.90;;;;;;5070784;28;20256;-78
2022/09/13 09:53:42;;;;;;;8.77;8.17;;;29.00;99.90;;;;;;5072121;28;20585;-79
2022/09/13 09:56:20;;;;;;;2.43;2.33;;;29.20;99.90;;;;;;5072811;28;20283;-78
2022/09/13 09:58:47;;;;;;;2.63;2.43;;;29.20;99.90;;;;;;5070896;28;20203;-77
2022/09/13 10:01:22;;;;;;;3.63;3.33;;;28.90;99.90;;;;;;5070822;28;20237;-78
2022/09/13 10:04:01;;;;;;;7.60;7.10;;;28.80;99.90;;;;;;5070663;28;20297;-78
2022/09/13 10:06:29;;;;;;;6.90;6.50;;;28.60;99.90;;;;;;5068997;28;20247;-78
2022/09/13 10:09:01;;;;;;;7.50;6.80;;;28.30;99.90;;;;;;5071097;28;20607;-78
2022/09/13 10:11:44;;;;;;;7.20;6.60;;;28.40;99.90;;;;;;5071101;28;20257;-78
2022/09/13 10:14:29;;;;;;;7.20;6.70;;;28.70;99.90;;;;;;5072416;28;20295;-78
2022/09/13 10:17:06;;;;;;;7.10;6.60;;;28.70;99.90;;;;;;5064909;28;20202;-78
2022/09/13 10:19:33;;;;;;;7.13;6.63;;;28.90;99.90;;;;;;5067775;28;20190;-78
2022/09/13 10:22:05;;;;;;;6.00;5.60;;;28.90;99.90;;;;;;5071982;28;20190;-78
2022/09/13 10:24:32;;;;;;;7.23;6.73;;;28.80;99.90;;;;;;5071799;28;20650;-78
2022/09/13 10:27:02;;;;;;;6.23;5.83;;;28.60;99.90;;;;;;5070384;28;20221;-77
2022/09/13 10:29:31;;;;;;;7.13;6.70;;;28.30;99.90;;;;;;5071877;28;20195;-78
2022/09/13 10:32:02;;;;;;;7.23;6.80;;;28.40;99.90;;;;;;5071786;28;20194;-78
2022/09/13 10:34:33;;;;;;;7.17;6.67;;;28.60;99.90;;;;;;5072105;28;20263;-78
2022/09/13 10:37:04;;;;;;;6.50;6.20;;;28.50;99.90;;;;;;5072320;28;20252;-77
2022/09/13 10:39:34;;;;;;;7.30;6.80;;;28.10;99.90;;;;;;5071750;28;20190;-77
2022/09/13 10:42:04;;;;;;;7.10;6.60;;;28.10;99.90;;;;;;5070425;28;20203;-77
2022/09/13 10:44:34;;;;;;;6.53;6.20;;;27.70;99.90;;;;;;5070467;28;20210;-77
2022/09/13 10:47:04;;;;;;;6.47;6.17;;;27.30;99.90;;;;;;5071984;28;20207;-77
2022/09/13 10:49:45;;;;;;;6.97;6.57;;;27.20;99.90;;;;;;5070830;28;20627;-78
2022/09/13 10:52:33;;;;;;;7.20;6.80;;;27.30;99.90;;;;;;5069752;28;20211;-77
2022/09/13 10:55:31;;;;;;;6.90;6.50;;;27.30;99.90;;;;;;5071303;28;20595;-77
2022/09/13 10:58:17;;;;;;;6.80;6.50;;;27.30;99.90;;;;;;5070607;28;20207;-77
2022/09/13 11:01:29;;;;;;;6.50;6.20;;;27.30;99.90;;;;;;5070511;28;20243;-77
2022/09/13 11:04:30;;;;;;;7.20;6.70;;;27.30;99.90;;;;;;5070931;28;20705;-78
2022/09/13 11:07:14;;;;;;;7.00;6.47;;;27.30;99.90;;;;;;5071719;28;20189;-77
2022/09/13 11:09:46;;;;;;;7.10;6.70;;;27.10;99.90;;;;;;5082513;28;20260;-76
2022/09/13 11:12:19;;;;;;;6.50;6.10;;;26.90;99.90;;;;;;5069605;28;20202;-77
2022/09/13 11:15:01;;;;;;;7.57;6.97;;;26.90;99.90;;;;;;5070080;28;20234;-77
2022/09/13 11:17:43;;;;;;;7.07;6.67;;;26.90;99.90;;;;;;5070218;28;20252;-77
2022/09/13 11:20:20;;;;;;;6.67;6.20;;;26.80;99.90;;;;;;5070460;28;20248;-77
2022/09/13 11:23:11;;;;;;;6.90;6.50;;;26.80;99.90;;;;;;5072986;28;20252;-77
2022/09/13 11:25:59;;;;;;;2.00;1.90;;;26.80;99.90;;;;;;5072939;28;20214;-78
2022/09/13 11:28:33;;;;;;;2.20;2.10;;;26.80;99.90;;;;;;5067136;28;20222;-78
2022/09/13 11:31:14;;;;;;;2.57;2.37;;;26.70;99.90;;;;;;5073980;28;20612;-78
2022/09/13 11:33:55;;;;;;;2.20;2.00;;;26.70;99.90;;;;;;5073311;28;20687;-77
2022/09/13 11:36:42;;;;;;;2.00;1.90;;;26.70;99.90;;;;;;5071543;28;20721;-77
2022/09/13 11:39:19;;;;;;;1.90;1.80;;;26.70;99.90;;;;;;5074072;28;20210;-78
2022/09/13 11:41:56;;;;;;;1.90;1.80;;;26.90;99.90;;;;;;5075261;28;20251;-77
2022/09/13 11:44:52;;;;;;;3.70;3.50;;;27.00;99.90;;;;;;5072282;28;20214;-77
2022/09/13 11:47:32;;;;;;;2.10;2.00;;;27.20;99.90;;;;;;5074805;28;20327;-77
2022/09/13 11:50:18;;;;;;;2.43;2.10;;;27.10;99.90;;;;;;5074998;28;20190;-78
2022/09/13 11:52:56;;;;;;;4.57;4.27;;;27.00;99.90;;;;;;5074875;28;20219;-77
2022/09/13 11:55:28;;;;;;;2.10;2.00;;;27.10;99.90;;;;;;5070960;28;20397;-77
2022/09/13 11:57:58;;;;;;;2.10;2.00;;;27.10;99.90;;;;;;5073723;28;20715;-77
2022/09/13 12:00:29;;;;;;;2.13;2.00;;;26.90;99.90;;;;;;5072444;28;20233;-77
2022/09/13 12:03:06;;;;;;;4.50;4.20;;;27.00;99.90;;;;;;5074656;28;20667;-77
2022/09/13 12:05:37;;;;;;;4.60;4.40;;;27.20;99.90;;;;;;5073584;28;20206;-77
2022/09/13 12:08:13;;;;;;;5.07;4.77;;;27.40;99.90;;;;;;5074865;28;20191;-77
2022/09/13 12:10:48;;;;;;;2.80;2.70;;;27.60;99.90;;;;;;5058194;28;20199;-77
2022/09/13 12:13:21;;;;;;;2.20;2.10;;;27.80;99.90;;;;;;5057404;28;20210;-76
2022/09/13 12:15:51;;;;;;;4.67;4.37;;;27.80;99.90;;;;;;5057831;28;20284;-79
2022/09/13 12:18:23;;;;;;;5.17;4.87;;;28.00;99.90;;;;;;5061085;28;20675;-79
2022/09/13 12:20:53;;;;;;;2.40;2.20;;;27.90;99.60;;;;;;5073519;28;20672;-79
2022/09/13 12:23:25;;;;;;;2.23;2.13;;;27.90;99.90;;;;;;5072843;28;20203;-79
2022/09/13 12:25:58;;;;;;;2.30;2.10;;;28.00;99.90;;;;;;5071148;28;20215;-79
2022/09/13 12:28:29;;;;;;;2.17;1.93;;;28.00;99.90;;;;;;5069156;28;20202;-78
2022/09/13 12:31:00;;;;;;;2.00;1.90;;;27.90;99.40;;;;;;5072760;28;20198;-78
2022/09/13 12:33:27;;;;;;;2.13;1.97;;;27.90;99.90;;;;;;5068249;28;20699;-78
2022/09/13 12:36:24;;;;;;;2.00;1.90;;;28.00;99.90;;;;;;5071133;28;20722;-78
2022/09/13 12:39:22;;;;;;;3.57;3.27;;;28.00;99.90;;;;;;5067759;28;20583;-79
2022/09/13 12:42:08;;;;;;;2.93;2.73;;;28.10;99.90;;;;;;5069389;28;20215;-79
2022/09/13 12:44:54;;;;;;;5.03;4.73;;;28.20;99.90;;;;;;5070484;28;20218;-78
2022/09/13 12:47:38;;;;;;;6.10;5.70;;;28.20;99.90;;;;;;5072671;28;20206;-78
2022/09/13 12:50:22;;;;;;;6.50;6.10;;;28.10;99.60;;;;;;5068680;28;20269;-78
2022/09/13 12:52:59;;;;;;;5.90;5.50;;;28.00;99.70;;;;;;5066098;28;20271;-79
2022/09/13 12:55:47;;;;;;;5.53;5.23;;;27.70;99.50;;;;;;5072033;28;20271;-77
2022/09/13 12:58:38;;;;;;;3.53;3.43;;;27.60;99.60;;;;;;5067634;28;20301;-78
2022/09/13 13:01:10;;;;;;;2.63;2.47;;;27.60;99.90;;;;;;5067413;28;20679;-77
2022/09/13 13:03:44;;;;;;;5.17;4.80;;;27.50;99.90;;;;;;5069327;28;20198;-77
2022/09/13 13:06:26;;;;;;;4.73;4.53;;;27.60;99.90;;;;;;5066515;28;20225;-77
2022/09/13 13:08:56;;;;;;;2.20;2.10;;;27.70;99.40;;;;;;5065496;28;20242;-77
2022/09/13 13:11:26;;;;;;;3.07;2.87;;;27.60;99.90;;;;;;5072645;28;20620;-78